Time;durP1;ratioP1;P1;durP2;ratioP2;P2;SDS_P1;SDS_P2;PMS_P1;PMS_P2;Temp;Humidity;BMP_temperature;BMP_pressure;BME280_temperature;BME280_humidity;BME280_pressure;Samples;Min_cycle;Max_cycle;Signal;HPM_P1;HPM_P2
2023/04/15 00:01:22;;;;;;;2.40;2.00;;;18.10;58.00;19.00;99913.00;;;;5030262;28;20194;-59
2023/04/15 00:03:51;;;;;;;2.10;1.90;;;18.10;57.50;19.00;99914.00;;;;5030073;28;20210;-59
2023/04/15 00:06:18;;;;;;;2.13;1.93;;;18.10;57.60;19.00;99915.00;;;;5029963;28;20199;-57
2023/04/15 00:08:44;;;;;;;2.17;1.97;;;18.10;57.60;19.00;99913.00;;;;5029826;28;20820;-60
2023/04/15 00:11:11;;;;;;;2.27;1.80;;;18.00;57.50;18.90;99920.00;;;;5028712;28;20672;-57
2023/04/15 00:13:38;;;;;;;2.07;1.87;;;18.00;57.50;18.90;99919.00;;;;5028504;28;20190;-57
2023/04/15 00:16:05;;;;;;;2.07;1.90;;;18.00;57.60;18.90;99912.00;;;;5029647;28;20236;-59
2023/04/15 00:18:31;;;;;;;1.80;1.70;;;18.00;57.70;18.90;99847.00;;;;5029936;28;20596;-58
2023/04/15 00:20:57;;;;;;;1.93;1.83;;;18.00;57.70;18.90;99907.00;;;;5028716;28;20205;-58
2023/04/15 00:23:23;;;;;;;2.10;1.90;;;18.00;57.70;18.90;99905.00;;;;5029768;28;20175;-59
2023/04/15 00:25:49;;;;;;;2.00;1.87;;;18.00;57.80;18.90;99919.00;;;;4995512;28;1083412;-59
2023/04/15 00:28:15;;;;;;;1.90;1.80;;;17.90;57.70;18.80;99904.00;;;;5032123;28;20232;-58
2023/04/15 00:30:41;;;;;;;2.27;2.07;;;17.90;57.80;18.80;99909.00;;;;5032619;28;20178;-58
2023/04/15 00:33:07;;;;;;;2.07;1.90;;;17.90;57.70;18.80;99907.00;;;;5030619;28;20235;-58
2023/04/15 00:35:33;;;;;;;1.87;1.77;;;17.90;57.80;18.80;99906.00;;;;5026156;28;20215;-58
2023/04/15 00:37:59;;;;;;;2.20;2.00;;;17.90;57.80;18.80;99908.00;;;;5041068;28;20210;-59
2023/04/15 00:40:25;;;;;;;2.20;2.00;;;17.90;57.80;18.50;99904.00;;;;5031563;28;20179;-60
2023/04/15 00:42:51;;;;;;;1.90;1.80;;;17.90;57.80;18.70;99912.00;;;;5031834;28;20171;-59
2023/04/15 00:45:17;;;;;;;1.80;1.70;;;17.80;57.80;18.70;99901.00;;;;5031412;28;20716;-58
2023/04/15 00:47:43;;;;;;;2.10;1.90;;;17.80;57.80;18.70;99917.00;;;;5011885;28;20618;-58
2023/04/15 00:50:10;;;;;;;2.00;1.83;;;17.90;57.90;18.70;99904.00;;;;5031608;28;20195;-57
2023/04/15 00:52:36;;;;;;;1.90;1.80;;;17.80;57.80;18.70;99913.00;;;;5038019;28;20174;-56
2023/04/15 00:55:03;;;;;;;1.73;1.63;;;17.80;57.80;18.70;99910.00;;;;5028853;28;20572;-57
2023/04/15 00:57:29;;;;;;;1.90;1.80;;;17.80;57.90;18.70;99902.00;;;;5027817;28;20198;-57
2023/04/15 00:59:55;;;;;;;1.87;1.77;;;17.80;57.90;18.70;99909.00;;;;5028812;28;20175;-57
2023/04/15 01:02:21;;;;;;;2.00;1.70;;;17.80;58.00;18.70;99912.00;;;;5030140;28;20189;-58
2023/04/15 01:04:47;;;;;;;1.90;1.80;;;17.80;57.90;18.70;99912.00;;;;5028402;28;20247;-58
2023/04/15 01:07:13;;;;;;;1.90;1.80;;;17.70;57.90;18.60;99914.00;;;;5029698;28;20683;-58
2023/04/15 01:09:39;;;;;;;1.87;1.77;;;17.70;57.90;18.70;99911.00;;;;5029671;28;20272;-59
2023/04/15 01:12:05;;;;;;;1.90;1.80;;;17.70;57.90;18.60;99907.00;;;;5028288;28;20177;-60
2023/04/15 01:14:31;;;;;;;2.10;1.90;;;17.70;57.90;18.60;99894.00;;;;5010441;28;20236;-57
2023/04/15 01:16:57;;;;;;;1.90;1.70;;;17.70;57.90;18.60;99905.00;;;;5028135;28;20695;-59
2023/04/15 01:19:22;;;;;;;1.73;1.63;;;17.70;58.00;18.60;99891.00;;;;5029358;28;20210;-59
2023/04/15 01:21:48;;;;;;;2.00;1.80;;;17.70;57.90;18.60;99900.00;;;;5029474;28;20170;-59
2023/04/15 01:24:15;;;;;;;1.80;1.70;;;17.60;57.90;18.60;99900.00;;;;5029360;28;20170;-57
2023/04/15 01:26:41;;;;;;;1.80;1.70;;;17.70;58.00;18.60;99896.00;;;;5028461;28;20301;-59
2023/04/15 01:29:07;;;;;;;2.00;1.90;;;17.60;57.90;18.60;99896.00;;;;5031476;28;20249;-57
2023/04/15 01:31:33;;;;;;;1.80;1.70;;;17.60;58.00;18.50;99907.00;;;;5031320;28;20202;-57
2023/04/15 01:33:59;;;;;;;2.10;1.90;;;17.60;58.00;18.50;99902.00;;;;5030466;28;20179;-57
2023/04/15 01:36:25;;;;;;;1.70;1.60;;;17.60;58.00;18.50;99897.00;;;;5029792;28;20309;-58
2023/04/15 01:38:51;;;;;;;1.83;1.73;;;17.60;58.00;18.50;99890.00;;;;5029790;28;20228;-58
2023/04/15 01:41:24;;;;;;;1.83;1.70;;;17.50;57.90;18.50;99831.00;;;;5027998;28;20240;-57
2023/04/15 01:43:50;;;;;;;1.90;1.80;;;17.60;58.00;18.50;99900.00;;;;5028942;28;20603;-57
2023/04/15 01:46:15;;;;;;;1.77;1.67;;;17.50;57.90;18.50;99907.00;;;;5028731;28;20266;-57
2023/04/15 01:48:41;;;;;;;1.70;1.60;;;17.50;57.90;18.50;99898.00;;;;5028790;28;20171;-58
2023/04/15 01:51:07;;;;;;;1.80;1.70;;;17.50;57.90;18.40;99897.00;;;;5029060;28;20174;-58
2023/04/15 01:53:33;;;;;;;1.97;1.80;;;17.50;57.90;18.40;99902.00;;;;5028246;28;20227;-58
2023/04/15 01:55:58;;;;;;;1.77;1.67;;;17.50;57.90;18.40;99898.00;;;;5027169;28;20193;-58
2023/04/15 01:58:24;;;;;;;1.80;1.70;;;17.50;58.60;18.40;99893.00;;;;5027431;28;20772;-58
2023/04/15 02:00:50;;;;;;;1.73;1.63;;;17.50;58.00;18.40;99886.00;;;;5028876;28;20274;-59
2023/04/15 02:03:16;;;;;;;1.90;1.80;;;17.50;58.00;18.40;99897.00;;;;5028532;28;20631;-59
2023/04/15 02:05:42;;;;;;;1.90;1.80;;;17.50;58.00;18.30;99893.00;;;;5028665;28;20206;-56
2023/04/15 02:08:08;;;;;;;1.80;1.70;;;17.40;57.90;18.40;99892.00;;;;5028722;28;20617;-57
2023/04/15 02:10:34;;;;;;;2.10;1.90;;;17.40;57.90;18.30;99891.00;;;;5027509;28;20683;-58
2023/04/15 02:13:00;;;;;;;1.73;1.63;;;17.40;57.90;18.30;99899.00;;;;5028580;28;20265;-57
2023/04/15 02:15:26;;;;;;;1.87;1.70;;;17.40;57.90;18.30;99905.00;;;;5028521;28;20204;-56
2023/04/15 02:17:54;;;;;;;1.80;1.70;;;17.40;57.90;18.30;99910.00;;;;5028312;28;20238;-60
2023/04/15 02:20:20;;;;;;;1.80;1.70;;;17.40;57.90;18.30;99900.00;;;;5028603;28;20187;-57
2023/04/15 02:22:47;;;;;;;1.80;1.70;;;17.40;57.90;18.30;99894.00;;;;5027406;28;20193;-59
2023/04/15 02:25:13;;;;;;;1.70;1.60;;;17.40;57.90;18.30;99919.00;;;;5027024;28;20176;-58
2023/04/15 02:27:39;;;;;;;1.87;1.77;;;17.30;57.80;18.20;99905.00;;;;5027329;28;20255;-57
2023/04/15 02:30:06;;;;;;;1.70;1.60;;;17.40;58.00;18.20;99917.00;;;;5028850;28;20191;-61
2023/04/15 02:32:32;;;;;;;1.80;1.70;;;17.30;57.90;18.20;99914.00;;;;5033499;28;20252;-59
2023/04/15 02:35:05;;;;;;;1.97;1.87;;;17.30;57.90;18.20;99914.00;;;;5024151;28;20250;-59
2023/04/15 02:37:31;;;;;;;1.90;1.80;;;17.30;58.00;18.20;99917.00;;;;5040387;28;20211;-59
2023/04/15 02:39:57;;;;;;;1.80;1.70;;;17.30;57.90;18.20;99916.00;;;;5033292;28;20179;-59
2023/04/15 02:42:26;;;;;;;1.70;1.60;;;17.30;57.90;18.20;99921.00;;;;5024798;28;20200;-57
2023/04/15 02:44:53;;;;;;;1.70;1.60;;;17.30;57.90;18.20;99919.00;;;;5030858;28;20186;-57
2023/04/15 02:47:19;;;;;;;2.30;1.70;;;17.30;57.90;18.10;99850.00;;;;5029740;28;20199;-57
2023/04/15 02:49:45;;;;;;;1.80;1.70;;;17.30;57.90;18.20;99933.00;;;;5031087;28;20631;-58
2023/04/15 02:52:11;;;;;;;1.77;1.67;;;17.20;57.80;18.10;99927.00;;;;5045943;28;20184;-58
2023/04/15 02:54:37;;;;;;;1.73;1.63;;;17.20;57.80;18.10;99922.00;;;;5033580;28;20259;-58
2023/04/15 02:57:05;;;;;;;1.80;1.70;;;17.20;57.80;18.10;99926.00;;;;5028855;28;20195;-58
2023/04/15 02:59:31;;;;;;;1.70;1.60;;;17.20;57.80;18.10;99936.00;;;;5028642;28;20224;-57
2023/04/15 03:01:59;;;;;;;1.70;1.60;;;17.20;57.90;18.10;99948.00;;;;5028529;28;20181;-57
2023/04/15 03:04:25;;;;;;;1.80;1.70;;;17.20;57.90;18.10;99939.00;;;;5028023;28;20171;-57
2023/04/15 03:06:51;;;;;;;1.90;1.80;;;17.20;57.90;18.10;99937.00;;;;5028008;28;20195;-58
2023/04/15 03:09:17;;;;;;;1.80;1.70;;;17.20;58.00;18.10;99937.00;;;;5026666;28;20590;-58
2023/04/15 03:11:43;;;;;;;1.70;1.60;;;17.20;58.20;18.10;99943.00;;;;5028318;28;20234;-58
2023/04/15 03:14:08;;;;;;;1.80;1.70;;;17.10;58.20;18.00;99935.00;;;;5027966;28;20178;-58
2023/04/15 03:16:34;;;;;;;1.87;1.77;;;17.10;58.20;18.00;99939.00;;;;5027981;28;20202;-58
2023/04/15 03:19:00;;;;;;;1.90;1.80;;;17.20;58.30;18.00;99936.00;;;;5028347;28;20187;-57
2023/04/15 03:21:26;;;;;;;1.80;1.70;;;17.10;58.20;18.00;99933.00;;;;5030626;28;20222;-58
2023/04/15 03:23:52;;;;;;;1.70;1.60;;;17.10;58.20;18.00;99933.00;;;;5031826;28;20174;-59
2023/04/15 03:26:28;;;;;;;2.00;1.70;;;17.10;58.20;18.00;99946.00;;;;5029973;28;20222;-57
2023/04/15 03:28:54;;;;;;;1.93;1.70;;;17.10;58.20;18.00;99942.00;;;;5031927;28;20639;-58
2023/04/15 03:31:20;;;;;;;1.93;1.80;;;17.10;58.30;18.00;99944.00;;;;5031474;28;20184;-57
2023/04/15 03:33:45;;;;;;;2.73;1.73;;;17.10;58.30;17.90;99926.00;;;;5031455;28;20171;-57
2023/04/15 03:36:11;;;;;;;1.77;1.67;;;17.10;58.40;17.90;99943.00;;;;5031178;28;20257;-57
2023/04/15 03:38:37;;;;;;;1.90;1.70;;;17.10;58.20;17.90;99952.00;;;;5030080;28;20205;-60
2023/04/15 03:41:02;;;;;;;2.17;1.63;;;17.10;58.20;17.90;99948.00;;;;5031550;28;20205;-56
2023/04/15 03:43:28;;;;;;;2.00;1.80;;;17.10;58.20;17.90;99947.00;;;;5031099;28;20282;-57
2023/04/15 03:45:54;;;;;;;1.80;1.70;;;17.10;58.20;17.90;99948.00;;;;5031187;28;20187;-57
2023/04/15 03:48:20;;;;;;;1.93;1.77;;;17.00;58.00;17.90;99960.00;;;;5031010;28;20652;-57
2023/04/15 03:50:45;;;;;;;2.27;1.73;;;17.00;58.00;17.90;99964.00;;;;5030130;28;20202;-57
2023/04/15 03:53:11;;;;;;;2.80;1.97;;;17.00;57.90;17.80;99969.00;;;;5030713;28;20183;-58
2023/04/15 03:55:37;;;;;;;2.60;1.97;;;16.90;57.80;17.80;99975.00;;;;5030866;28;20260;-57
2023/04/15 03:58:03;;;;;;;1.87;1.77;;;16.90;57.70;17.80;99972.00;;;;5030993;28;20713;-57
2023/04/15 04:00:28;;;;;;;2.00;1.80;;;16.90;57.70;17.80;99972.00;;;;5030984;28;20186;-57
2023/04/15 04:02:54;;;;;;;2.13;1.90;;;16.90;57.60;17.80;99972.00;;;;5033036;28;20179;-57
2023/04/15 04:05:20;;;;;;;2.03;1.90;;;16.90;57.50;17.70;99973.00;;;;5033664;28;20223;-58
2023/04/15 04:07:46;;;;;;;2.10;1.90;;;16.80;57.40;17.70;99972.00;;;;5032732;28;20211;-57
2023/04/15 04:10:12;;;;;;;2.57;1.90;;;16.90;57.30;17.70;99962.00;;;;5030418;28;20570;-57
2023/04/15 04:12:37;;;;;;;2.93;1.97;;;16.90;57.40;17.70;99965.00;;;;5025163;28;20183;-58
2023/04/15 04:15:04;;;;;;;3.77;2.10;;;16.80;57.20;17.70;99967.00;;;;5029669;28;20244;-57
2023/04/15 04:17:30;;;;;;;2.00;1.80;;;16.80;57.10;17.70;99964.00;;;;5029892;28;20234;-58
2023/04/15 04:19:56;;;;;;;2.20;2.00;;;16.80;57.10;17.70;99974.00;;;;5030353;28;20206;-56
2023/04/15 04:22:23;;;;;;;2.43;2.10;;;16.80;57.10;17.60;99972.00;;;;5029946;28;20182;-57
2023/04/15 04:24:49;;;;;;;3.57;2.00;;;16.80;57.10;17.60;99970.00;;;;5030241;28;20225;-57
2023/04/15 04:27:14;;;;;;;3.10;2.00;;;16.80;57.10;17.60;99973.00;;;;5030234;28;20211;-57
2023/04/15 04:29:40;;;;;;;3.10;1.93;;;16.80;57.10;17.60;99985.00;;;;5029441;28;20175;-57
2023/04/15 04:32:06;;;;;;;2.73;1.87;;;16.70;57.10;17.60;99976.00;;;;5028699;28;20175;-58
2023/04/15 04:34:32;;;;;;;2.93;2.00;;;16.70;57.10;17.60;99982.00;;;;5030515;28;20207;-58
2023/04/15 04:36:57;;;;;;;2.63;2.00;;;16.70;57.20;17.60;99991.00;;;;5043000;28;20216;-58
2023/04/15 04:39:23;;;;;;;2.43;2.10;;;16.70;57.20;17.50;99992.00;;;;5040426;28;20179;-58
2023/04/15 04:41:51;;;;;;;3.60;2.20;;;16.70;57.30;17.50;99993.00;;;;5023595;28;20186;-57
2023/04/15 04:44:16;;;;;;;3.50;2.30;;;16.70;57.30;17.50;99997.00;;;;5024499;28;20179;-58
2023/04/15 04:46:42;;;;;;;7.20;2.73;;;16.70;57.50;17.50;99995.00;;;;5031291;28;20229;-58
2023/04/15 04:49:08;;;;;;;6.43;2.40;;;16.60;57.50;17.50;100001.00;;;;5032851;28;20185;-57
2023/04/15 04:51:34;;;;;;;6.77;2.67;;;16.70;57.70;17.50;100010.00;;;;5049961;28;20182;-58
2023/04/15 04:53:59;;;;;;;12.20;2.93;;;16.60;57.80;17.50;100000.00;;;;5035781;28;20187;-57
2023/04/15 04:56:25;;;;;;;9.33;2.70;;;16.60;57.80;17.50;100007.00;;;;5028967;28;20202;-58
2023/04/15 04:58:51;;;;;;;9.00;2.83;;;16.60;58.00;17.50;100002.00;;;;5030884;28;20175;-57
2023/04/15 05:01:17;;;;;;;6.17;2.30;;;16.60;58.00;17.40;100002.00;;;;5030260;28;20221;-58
2023/04/15 05:03:43;;;;;;;8.70;2.80;;;16.60;58.00;17.40;99991.00;;;;5030352;28;20183;-57
2023/04/15 05:06:09;;;;;;;8.23;3.10;;;16.60;58.10;17.40;100010.00;;;;5028866;28;20195;-57
2023/04/15 05:08:35;;;;;;;12.77;3.73;;;16.60;58.00;17.40;100015.00;;;;5030763;28;20197;-58
2023/04/15 05:11:02;;;;;;;7.73;3.10;;;16.60;58.10;17.40;100011.00;;;;5029849;28;20263;-58
2023/04/15 05:13:28;;;;;;;7.87;3.00;;;16.60;58.20;17.40;100009.00;;;;5029043;28;20190;-57
2023/04/15 05:15:55;;;;;;;6.10;2.80;;;16.50;58.00;17.40;100009.00;;;;5030015;28;20209;-57
2023/04/15 05:18:21;;;;;;;4.53;2.60;;;16.50;58.10;17.40;100014.00;;;;5028805;28;20276;-58
2023/04/15 05:20:48;;;;;;;6.80;2.93;;;16.50;58.10;17.40;99995.00;;;;5030319;28;20183;-58
2023/04/15 05:23:15;;;;;;;4.77;3.00;;;16.50;58.10;17.40;100021.00;;;;5028535;28;20240;-58
2023/04/15 05:25:41;;;;;;;7.77;2.73;;;16.50;58.10;17.30;100019.00;;;;5028476;28;20707;-57
2023/04/15 05:28:06;;;;;;;7.43;2.80;;;16.50;58.10;17.30;100020.00;;;;5029754;28;20183;-58
2023/04/15 05:30:32;;;;;;;6.83;3.00;;;16.50;58.10;17.30;100022.00;;;;5030308;28;20190;-58
2023/04/15 05:32:58;;;;;;;8.40;2.77;;;16.50;58.10;17.30;100026.00;;;;5028003;28;20179;-58
2023/04/15 05:35:24;;;;;;;8.17;3.07;;;16.40;58.00;17.30;100035.00;;;;5030144;28;20207;-58
2023/04/15 05:37:50;;;;;;;5.77;2.70;;;16.40;58.00;17.30;100037.00;;;;5028839;28;20195;-57
2023/04/15 05:40:15;;;;;;;7.70;3.20;;;16.40;58.00;17.30;100031.00;;;;5029695;28;20646;-58
2023/04/15 05:42:41;;;;;;;4.43;2.50;;;16.50;58.10;17.10;100026.00;;;;5028966;28;20190;-58
2023/04/15 05:45:08;;;;;;;4.80;2.77;;;16.40;58.00;17.30;100039.00;;;;5027909;28;20174;-57
2023/04/15 05:47:36;;;;;;;3.90;2.50;;;16.40;58.00;17.30;100037.00;;;;5029598;28;20194;-57
2023/04/15 05:50:02;;;;;;;6.13;2.83;;;16.40;58.00;17.20;100040.00;;;;5029690;28;20592;-58
2023/04/15 05:52:28;;;;;;;5.03;2.60;;;16.40;58.00;17.20;100046.00;;;;5029342;28;20198;-57
2023/04/15 05:54:53;;;;;;;2.87;2.20;;;16.40;58.10;17.20;100050.00;;;;5028546;28;20177;-57
2023/04/15 05:57:19;;;;;;;5.90;2.67;;;16.40;58.00;17.20;100047.00;;;;5028787;28;20580;-58
2023/04/15 05:59:45;;;;;;;4.70;2.80;;;16.40;58.00;17.20;100048.00;;;;5029718;28;20176;-57
2023/04/15 06:02:11;;;;;;;5.63;2.87;;;16.40;58.00;17.20;100050.00;;;;5029489;28;20179;-57
2023/04/15 06:04:36;;;;;;;4.57;2.47;;;16.40;58.00;17.20;100048.00;;;;5028870;28;20178;-56
2023/04/15 06:07:02;;;;;;;4.43;2.43;;;16.40;58.00;17.10;100062.00;;;;5029403;28;20210;-61
2023/04/15 06:09:28;;;;;;;4.73;2.40;;;16.30;57.90;17.10;100064.00;;;;5028180;28;20183;-58
2023/04/15 06:11:55;;;;;;;3.77;2.43;;;16.30;57.90;17.10;100070.00;;;;5028896;28;20190;-58
2023/04/15 06:14:21;;;;;;;4.40;2.50;;;16.30;57.90;17.10;100065.00;;;;5027909;28;20187;-58
2023/04/15 06:16:47;;;;;;;2.97;2.13;;;16.30;57.90;17.10;100070.00;;;;5029031;28;20233;-58
2023/04/15 06:19:13;;;;;;;3.33;2.40;;;16.30;57.90;17.10;100077.00;;;;5029822;28;20193;-57
2023/04/15 06:21:38;;;;;;;3.53;2.43;;;16.30;57.90;17.10;100073.00;;;;5029360;28;20178;-57
2023/04/15 06:24:04;;;;;;;4.00;2.50;;;16.20;57.90;17.10;100070.00;;;;5028682;28;20175;-58
2023/04/15 06:26:30;;;;;;;4.00;2.60;;;16.20;57.90;17.10;100085.00;;;;5028513;28;20572;-58
2023/04/15 06:28:56;;;;;;;6.03;2.40;;;16.20;57.90;17.00;100082.00;;;;5028117;28;20174;-57
2023/04/15 06:31:22;;;;;;;3.83;2.47;;;16.20;57.90;17.00;100087.00;;;;5028749;28;20233;-57
2023/04/15 06:33:47;;;;;;;3.03;2.13;;;16.20;57.90;17.00;100101.00;;;;5028784;28;20221;-58
2023/04/15 06:36:14;;;;;;;2.90;2.40;;;16.20;57.90;17.00;100098.00;;;;5028977;28;20789;-58
2023/04/15 06:38:40;;;;;;;4.07;2.50;;;16.20;57.90;17.00;100088.00;;;;5036400;28;20723;-58
2023/04/15 06:41:05;;;;;;;3.90;2.30;;;16.20;57.90;17.00;100091.00;;;;5037189;28;20179;-57
2023/04/15 06:43:31;;;;;;;3.57;2.47;;;16.20;57.90;17.00;100096.00;;;;5035572;28;20179;-58
2023/04/15 06:45:57;;;;;;;4.10;2.30;;;16.20;57.90;16.90;100092.00;;;;5036375;28;20217;-57
2023/04/15 06:48:23;;;;;;;2.50;2.30;;;16.20;57.90;16.90;100086.00;;;;5031217;28;20183;-57
2023/04/15 06:50:49;;;;;;;3.23;2.30;;;16.10;57.80;16.90;100100.00;;;;5037415;28;20186;-57
2023/04/15 06:53:14;;;;;;;3.10;2.40;;;16.10;57.90;16.90;100100.00;;;;5036334;28;20772;-57
2023/04/15 06:55:40;;;;;;;2.57;2.37;;;16.10;57.90;16.90;100112.00;;;;5032869;28;20224;-57
2023/04/15 06:58:06;;;;;;;2.63;2.10;;;16.10;58.00;16.90;100120.00;;;;5032865;28;20199;-58
2023/04/15 07:00:32;;;;;;;3.90;2.43;;;16.10;58.00;16.90;100122.00;;;;5032494;28;20210;-58
2023/04/15 07:03:02;;;;;;;3.37;2.40;;;16.10;58.00;16.90;100127.00;;;;5030684;28;20657;-57
2023/04/15 07:05:31;;;;;;;2.30;2.10;;;16.10;58.30;16.80;100122.00;;;;5032474;28;20249;-58
2023/04/15 07:07:57;;;;;;;2.37;2.00;;;16.10;58.30;16.80;100124.00;;;;5032606;28;20185;-57
2023/04/15 07:10:22;;;;;;;3.77;2.40;;;16.10;58.30;16.80;100126.00;;;;5014418;28;20183;-56
2023/04/15 07:12:49;;;;;;;4.37;2.20;;;16.10;58.40;16.80;100128.00;;;;5031635;28;20564;-57
2023/04/15 07:15:15;;;;;;;2.83;2.50;;;16.10;58.40;16.80;100133.00;;;;5032471;28;20194;-57
2023/04/15 07:17:44;;;;;;;3.20;2.30;;;16.10;58.50;16.80;100137.00;;;;5030500;28;20237;-57
2023/04/15 07:20:11;;;;;;;5.27;2.40;;;16.10;58.70;16.80;100135.00;;;;5020092;28;20601;-57
2023/04/15 07:22:37;;;;;;;4.17;2.50;;;16.00;58.70;16.80;100131.00;;;;5027588;28;20202;-57
2023/04/15 07:25:03;;;;;;;4.37;2.47;;;16.00;58.70;16.80;100137.00;;;;5031781;28;20205;-56
2023/04/15 07:27:29;;;;;;;2.50;2.10;;;16.00;58.80;16.70;100144.00;;;;5027360;28;20281;-58
2023/04/15 07:29:55;;;;;;;3.73;2.20;;;16.00;58.80;16.70;100152.00;;;;5032140;28;20211;-57
2023/04/15 07:32:21;;;;;;;6.13;2.50;;;16.00;58.80;16.70;100152.00;;;;5031287;28;20776;-57
2023/04/15 07:34:47;;;;;;;2.80;2.23;;;16.00;58.90;16.70;100148.00;;;;5031013;28;20257;-56
2023/04/15 07:37:13;;;;;;;2.60;2.20;;;16.00;58.90;16.70;100146.00;;;;5032069;28;20212;-58
2023/04/15 07:39:39;;;;;;;3.97;2.30;;;16.00;58.90;16.70;100153.00;;;;5035767;28;20179;-56
2023/04/15 07:42:05;;;;;;;4.73;2.30;;;16.00;58.90;16.70;100155.00;;;;5035454;28;20182;-57
2023/04/15 07:44:31;;;;;;;2.57;2.30;;;16.00;59.10;16.70;100162.00;;;;5025795;28;20175;-57
2023/04/15 07:46:56;;;;;;;3.10;2.40;;;16.00;59.00;16.70;100166.00;;;;5030274;28;20265;-57
2023/04/15 07:49:22;;;;;;;2.93;2.23;;;16.00;59.10;16.70;100165.00;;;;5031091;28;20190;-58
2023/04/15 07:51:48;;;;;;;3.23;2.00;;;16.00;59.20;16.70;100140.00;;;;5031191;28;20191;-47
2023/04/15 07:54:15;;;;;;;5.20;2.30;;;16.00;59.40;16.70;100171.00;;;;5029548;28;20206;-47
2023/04/15 07:56:40;;;;;;;2.63;2.10;;;16.00;59.40;16.70;100176.00;;;;5030939;28;20206;-49
2023/04/15 07:59:06;;;;;;;4.27;2.23;;;15.90;59.30;16.70;100165.00;;;;5030971;28;20527;-49
2023/04/15 08:01:32;;;;;;;3.33;2.07;;;16.00;59.40;16.70;100183.00;;;;5030553;28;20179;-49
2023/04/15 08:03:58;;;;;;;5.67;2.43;;;16.00;59.30;16.70;100185.00;;;;5028976;28;20175;-49
2023/04/15 08:06:24;;;;;;;6.10;2.40;;;15.90;59.30;16.70;100189.00;;;;5029374;28;20575;-48
2023/04/15 08:08:50;;;;;;;3.47;2.10;;;15.90;59.40;16.70;100184.00;;;;5027294;28;20167;-48
2023/04/15 08:11:16;;;;;;;3.00;2.20;;;15.90;59.40;16.70;100191.00;;;;5030699;28;20175;-49
2023/04/15 08:13:42;;;;;;;4.07;2.20;;;15.90;59.60;16.70;100197.00;;;;5030364;28;20190;-48
2023/04/15 08:16:23;;;;;;;4.53;2.10;;;15.90;59.70;16.70;100203.00;;;;5029897;28;20326;-49
2023/04/15 08:18:50;;;;;;;3.20;2.17;;;15.90;59.70;16.70;100203.00;;;;5025508;28;20667;-50
2023/04/15 08:21:16;;;;;;;3.30;2.10;;;15.90;59.70;16.70;100203.00;;;;5030076;28;20179;-48
2023/04/15 08:23:43;;;;;;;3.60;2.07;;;15.90;59.70;16.70;100204.00;;;;5030162;28;20350;-48
2023/04/15 08:26:09;;;;;;;3.73;2.17;;;15.90;59.70;16.70;100193.00;;;;5030445;28;20210;-49
2023/04/15 08:28:37;;;;;;;3.67;2.20;;;15.80;59.60;16.70;100216.00;;;;5029010;28;20179;-50
2023/04/15 08:31:02;;;;;;;2.63;2.10;;;15.90;59.80;16.70;100213.00;;;;5030754;28;20182;-50
2023/04/15 08:33:29;;;;;;;2.37;1.90;;;15.90;59.70;16.70;100213.00;;;;5030546;28;20183;-50
2023/04/15 08:35:54;;;;;;;2.77;2.10;;;15.90;59.80;16.70;100145.00;;;;5025171;28;20209;-48
2023/04/15 08:38:20;;;;;;;2.33;2.00;;;15.90;59.80;16.70;100215.00;;;;5038007;28;20203;-48
2023/04/15 08:40:46;;;;;;;2.93;2.00;;;15.80;59.70;16.70;100221.00;;;;5043594;28;20171;-49
2023/04/15 08:43:25;;;;;;;1.93;1.80;;;15.90;59.80;16.70;100221.00;;;;5034451;28;20175;-49
2023/04/15 08:45:51;;;;;;;3.47;2.00;;;15.90;59.80;16.70;100228.00;;;;5031787;28;20187;-48
2023/04/15 08:48:17;;;;;;;3.23;1.87;;;15.90;60.00;16.70;100230.00;;;;5032242;28;20186;-48
2023/04/15 08:50:43;;;;;;;2.60;1.90;;;15.90;59.80;16.70;100226.00;;;;5033165;28;20182;-49
2023/04/15 08:53:10;;;;;;;7.80;2.10;;;15.90;60.00;16.70;100233.00;;;;5039402;28;20179;-49
2023/04/15 08:55:46;;;;;;;1.97;1.77;;;15.90;60.00;16.70;100226.00;;;;5042210;28;20202;-48
2023/04/15 08:58:13;;;;;;;2.50;2.00;;;15.90;60.20;16.70;100238.00;;;;5033307;28;20194;-50
2023/04/15 09:00:39;;;;;;;3.70;1.93;;;15.90;60.30;16.70;100243.00;;;;5033076;28;20266;-48
2023/04/15 09:03:07;;;;;;;2.47;2.00;;;16.00;60.30;16.80;100242.00;;;;5032456;28;20656;-48
2023/04/15 09:05:34;;;;;;;2.90;1.80;;;16.10;60.30;16.80;100249.00;;;;5032158;28;20206;-48
2023/04/15 09:08:01;;;;;;;3.70;1.97;;;16.10;60.30;16.90;100247.00;;;;5032414;28;20187;-49
2023/04/15 09:10:27;;;;;;;2.57;2.00;;;16.30;60.30;16.90;100245.00;;;;5032740;28;20782;-49
2023/04/15 09:12:53;;;;;;;3.53;2.00;;;16.30;60.10;17.00;100251.00;;;;5032253;28;20189;-49
2023/04/15 09:15:19;;;;;;;2.60;1.70;;;16.50;60.20;17.10;100248.00;;;;5030722;28;20214;-49
2023/04/15 09:17:45;;;;;;;1.60;1.50;;;16.60;60.00;17.20;100251.00;;;;5031513;28;20230;-51
2023/04/15 09:20:13;;;;;;;3.37;1.80;;;16.70;59.90;17.30;100255.00;;;;5032271;28;20175;-49
2023/04/15 09:22:40;;;;;;;2.80;1.77;;;16.80;59.80;17.30;100252.00;;;;5032496;28;20186;-49
2023/04/15 09:25:27;;;;;;;3.03;1.90;;;16.80;59.80;17.40;100256.00;;;;5031732;28;20266;-49
2023/04/15 09:27:59;;;;;;;3.63;1.80;;;16.90;60.00;17.50;100258.00;;;;5031899;28;20187;-49
2023/04/15 09:30:26;;;;;;;2.93;1.83;;;16.90;59.80;17.50;100266.00;;;;5032370;28;20667;-48
2023/04/15 09:32:57;;;;;;;3.27;1.77;;;17.00;59.80;17.60;100278.00;;;;5031251;28;20198;-48
2023/04/15 09:35:24;;;;;;;3.23;1.93;;;17.00;59.70;17.60;100263.00;;;;5022446;28;20207;-48
2023/04/15 09:37:50;;;;;;;1.80;1.70;;;17.10;59.80;17.70;100279.00;;;;5032131;28;20206;-49
2023/04/15 09:40:35;;;;;;;1.67;1.57;;;17.10;59.60;17.70;100267.00;;;;5014069;28;20185;-48
2023/04/15 09:43:03;;;;;;;2.20;1.87;;;17.10;59.60;17.70;100272.00;;;;5031630;28;20166;-49
2023/04/15 09:45:30;;;;;;;2.87;1.77;;;17.20;59.70;17.80;100262.00;;;;5031727;28;20204;-48
2023/04/15 09:47:58;;;;;;;1.83;1.73;;;17.20;59.70;17.80;100270.00;;;;5030440;28;20267;-48
2023/04/15 09:50:26;;;;;;;1.70;1.60;;;17.20;59.70;17.90;100287.00;;;;5030249;28;20183;-48
2023/04/15 09:52:52;;;;;;;3.97;1.67;;;17.20;59.70;17.90;100294.00;;;;5030097;28;20661;-49
2023/04/15 09:55:18;;;;;;;3.63;1.80;;;17.20;59.70;17.90;100290.00;;;;5031248;28;20179;-48
2023/04/15 09:57:45;;;;;;;2.20;1.60;;;17.20;59.80;17.90;100290.00;;;;5031352;28;20215;-49
2023/04/15 10:00:12;;;;;;;2.03;1.70;;;17.20;59.80;18.00;100296.00;;;;5030228;28;20200;-48
2023/04/15 10:02:41;;;;;;;1.97;1.60;;;17.30;60.60;18.00;100290.00;;;;5031383;28;20175;-49
2023/04/15 10:05:10;;;;;;;1.67;1.57;;;17.20;59.80;18.00;100303.00;;;;5031392;28;20178;-49
2023/04/15 10:07:35;;;;;;;1.93;1.70;;;17.30;59.80;18.00;100288.00;;;;5029755;28;20194;-48
2023/04/15 10:10:02;;;;;;;1.70;1.60;;;17.30;59.80;18.10;100294.00;;;;5030574;28;20191;-48
2023/04/15 10:12:28;;;;;;;3.07;1.70;;;17.40;59.90;18.10;100313.00;;;;5021796;28;20226;-49
2023/04/15 10:15:05;;;;;;;3.37;1.50;;;17.30;60.00;18.10;100307.00;;;;5029879;28;20179;-49
2023/04/15 10:17:36;;;;;;;3.83;1.63;;;17.30;60.30;18.10;100305.00;;;;5030752;28;20217;-48
2023/04/15 10:20:03;;;;;;;2.07;1.60;;;17.40;60.30;18.20;100314.00;;;;5030496;28;20251;-48
2023/04/15 10:22:29;;;;;;;3.07;1.63;;;17.40;60.50;18.20;100316.00;;;;5030787;28;20208;-49
2023/04/15 10:25:01;;;;;;;2.30;1.50;;;17.50;60.70;18.20;100320.00;;;;5029064;28;20616;-48
2023/04/15 10:27:27;;;;;;;3.20;1.90;;;17.50;60.70;18.20;100319.00;;;;5030879;28;20219;-48
2023/04/15 10:29:53;;;;;;;2.37;1.67;;;17.50;61.00;18.20;100316.00;;;;5034865;28;20182;-48
2023/04/15 10:32:20;;;;;;;2.20;1.50;;;17.50;60.90;18.20;100314.00;;;;5035144;28;20863;-48
2023/04/15 10:34:46;;;;;;;2.67;1.60;;;17.40;60.80;18.20;100307.00;;;;5034144;28;20191;-47
2023/04/15 10:37:12;;;;;;;1.50;1.40;;;17.40;60.80;18.30;100244.00;;;;5033504;28;20207;-50
2023/04/15 10:39:40;;;;;;;4.03;1.67;;;17.40;61.00;18.20;100321.00;;;;5034410;28;20575;-47
2023/04/15 10:42:16;;;;;;;4.50;1.50;;;17.50;61.10;18.30;100322.00;;;;5041163;28;20187;-49
2023/04/15 10:44:48;;;;;;;3.07;1.60;;;17.50;62.10;18.30;100333.00;;;;5035666;28;20660;-54
2023/04/15 10:47:19;;;;;;;2.17;1.60;;;17.50;61.30;18.30;100330.00;;;;5037009;28;20194;-49